Tiempo atmosférico en la estación meteorológica de Teruel, Teruel (900 m.)



Fecha
DESCASC
Temp. máxima en grados centígrados (hora)
DESCASC
Temp. mínima en grados centígrados (hora)
DESCASC
Temp. media en grados centígrados
DESCASC
Racha de viento máxima en m/sg (hora)
DESCASC
Velocidad máxima media en intervalos de 10 minutos(hora)
DESCASC
Precipitaciones diarias en mm
DESCASC
Precipitaciones de 00:00 a 06:00 en mm
DESCASC
Precipitaciones de 06:00 a 12:00 en mm
DESCASC
Precipitaciones de 12:00 a 18:00 en mm
DESCASC
Precipitaciones de 18:00 a 24:00 en mm
DESCASC
21-01-2020 3 (23:00) -0.4 (00:00) 1.3 11.67 (05:10) 5 (02:50) 21.2 0 4.4 11 5.8
10-01-2020 7.7 (14:20) -0.7 (-00:0) 3.5 11.39 (12:10) 4.72 (11:40) 0 0 0 0 0
17-01-2020 11.9 (14:40) -1.8 (-00:0) 5 10.56 (13:00) 5.83 (14:50) 0 0 0 0 0
20-01-2020 1.5 (20:30) -1.6 (-00:0) -0.1 10 (10:10) 4.72 (09:50) 0 0 0 0 0
19-01-2020 6.5 (00:00) -0.6 (-00:0) 2.9 10 (15:40) 4.44 (12:10) 0.8 0.4 0 0.4 0
18-01-2020 11.2 (16:50) -1.3 (-00:0) 4.9 9.72 (13:40) 6.11 (12:30) 0.8 0 0 0 0.8
16-01-2020 15.7 (14:40) -3.4 (-00:0) 6.1 9.17 (14:30) 5.56 (14:30) 0 0 0 0 0
14-01-2020 15.4 (16:00) -7.9 (-00:0) 3.7 7.78 (16:50) 4.17 (16:50) 0 0 0 0 0
04-01-2020 8.8 (15:50) -2 (-00:0) 3.4 6.94 (17:20) 3.61 (16:10) 0 0 0 0 0
09-01-2020 15.4 (16:20) -0.8 (-00:0) 7.3 6.11 (16:50) 3.06 (16:50) 0 0 0 0 0
03-01-2020 13 (14:40) -4.6 (-00:0) 4.2 5.83 (16:30) 3.06 (23:59) 0 0 0 0 0
25-01-2020 10.3 (16:10) 2.6 (00:00) 6.5 5.28 (16:20) 3.06 (16:20) 0.6 0 0 0.6 0
22-01-2020 7.4 (15:00) 0.8 (00:00) 4.1 5.28 (13:10) 3.06 (13:10) 1 0.6 0 0 0.4
13-01-2020 12.7 (16:20) -8.6 (-00:0) 2 5.28 (16:10) 2.22 (16:00) 0 0 0 0 0
11-01-2020 11.6 (16:40) -3.5 (-00:0) 4.1 5 (01:20) 2.5 (01:10) 0 0 0 0 0
12-01-2020 11.7 (16:10) -7.9 (09:10) 1.9 4.72 (16:00) 2.5 (16:00) 0 0 0 0 0
24-01-2020 8.9 (15:50) 0.4 (00:00) 4.6 4.72 (13:30) 2.5 (12:50) 0 0 0 0 0
08-01-2020 15.3 (15:40) -3.1 (-00:0) 6.1 4.44 (17:50) 2.5 (18:40) 0 0 0 0 0
15-01-2020 14.3 (16:20) -5.4 (-00:0) 4.5 4.44 (18:40) 3.33 (18:40) 0 0 0 0 0
06-01-2020 16.5 (15:40) -5.1 (-00:0) 5.7 3.61 (21:30) 2.5 (21:30) 0 0 0 0 0
23-01-2020 4.4 (17:20) 1.6 (00:00) 3 3.61 (12:50) 2.22 (12:50) 0 0 0 0 0
30-12-2019 13.6 (16:30) -4.9 (-00:0) 4.4 3.33 (12:40) 1.67 (12:30) 0 0 0 0 0
28-12-2019 15.4 (16:30) -6.7 (-00:0) 4.3 3.33 (06:00) 1.67 (06:00) 0 0 0 0 0
27-12-2019 13.2 (16:10) -2.1 (-00:0) 5.5 3.06 (07:10) 1.67 (07:20) 0 0 0 0 0
07-01-2020 15.7 (16:10) -5.1 (-00:0) 5.3 3.06 (21:00) 1.67 (16:40) 0 0 0 0 0
05-01-2020 14.7 (16:30) -4.8 (-00:0) 4.9 2.78 (12:00) 1.94 (12:00) 0 0 0 0 0
02-01-2020 16.4 (17:00) -5.9 (-00:0) 5.2 2.78 (22:40) 1.67 (22:40) 0 0 0 0 0
01-01-2020 16.1 (16:00) -5.1 (-00:0) 5.5 2.78 (16:50) 1.94 (16:40) 0 0 0 0 0
31-12-2019 15.3 (16:00) -4.6 (-00:0) 5.4 2.5 (15:50) 1.67 (15:50) 0 0 0 0 0
29-12-2019 15.2 (16:10) -4.9 (-00:0) 5.1 2.5 (12:30) 1.39 (04:50) 0 0 0 0 0

Gráficas

Temp. máximas Temp. mínimas Temp. medias Precipitaciones Rachas de viento máximas Velocidades máximas media en intervalos de 10 minutos

Datos horarios

Fecha y hora oficial Temperatura (ºC) Velocidad del viento (km/h) Dirección del viento Racha (km/h) Dirección de racha Precipitación (mm) Presión (hPa) Tendencia (hPa) Humedad (%)
2020-01-25 23:00:00 5.5 0 Calma 4 Sur 0 914 0.5 89
2020-01-25 22:00:00 5.6 2 Este 11 Sur 0 914.1 1.1 90
2020-01-25 21:00:00 5.9 6 Sur 13 Sur 0 913.9 1.3 86
2020-01-25 20:00:00 6.3 8 Sur 17 Sur 0 913.5 1.1 85
2020-01-25 19:00:00 7.1 7 Sur 14 Sur 0 913 0.7 85
2020-01-25 18:00:00 7.6 6 Sur 14 Sur 0.2 912.6 -0.7 87
2020-01-25 17:00:00 8.7 9 Sur 19 Sur 0 912.4 -1.7 81
2020-01-25 16:00:00 10.1 4 Sudeste 9 Sur 0 912.3 -2.3 80
2020-01-25 15:00:00 8.3 6 Sur 12 Sur 0.4 913.3 -2.1 86
2020-01-25 14:00:00 8.4 9 Sur 17 Sur 0 914.1 -1.3 79
2020-01-25 13:00:00 8.9 6 Sur 13 Sur 0 914.6 -0.6 75
2020-01-25 12:00:00 7.9 5 Sur 10 Sur 0 915.4 0.4 83
2020-01-25 11:00:00 5.1 3 Este 6 Este 0 915.4 1 95
2020-01-25 10:00:00 3.8 4 Oeste 5 Sudoeste 0 915.2 0.9 97
2020-01-25 09:00:00 2.8 2 Este 4 Sudeste 0 915 0.6 96
2020-01-25 08:00:00 2.7 0 Calma 4 Sudeste 0 914.4 -0.2 97
2020-01-25 07:00:00 2.6 0 Calma 5 Oeste 0 914.3 -0.6 96
2020-01-25 06:00:00 2.7 5 Sudoeste 6 Oeste 0 914.4 -0.8 96
2020-01-25 05:00:00 3 2 Nordeste 4 Este 0 914.6 -1 97
2020-01-25 04:00:00 3 3 Sudeste 5 Sur 0 914.9 -0.9 94
2020-01-25 03:00:00 3.9 2 Noroeste 6 Oeste 0 915.2 -0.9 92
2020-01-25 02:00:00 4.2 4 Oeste 6 Oeste 0 915.6 -0.6 91
2020-01-25 01:00:00 4.1 2 Este 6 Sur 0 915.8 -0.4 92
2020-01-25 00:00:00 4.4 3 Sudeste 6 Este 0 916.1 -0.3 91
2020-01-24 23:00:00 5.2 0 Calma 6 Oeste 0 916.2 0.1 89
2020-01-24 22:00:00 5.6 4 Oeste 6 Oeste 0 916.2 0.5 89
2020-01-24 21:00:00 5.9 0 Calma 4 Sur 0 916.4 0.9 86
2020-01-24 20:00:00 6.2 2 Sudeste 4 Sur 0 916.1 0.5 85
2020-01-24 19:00:00 6.7 2 Noroeste 8 Sudeste 0 915.7 -0.1 83
2020-01-24 18:00:00 7.5 4 Sur 10 Sudeste 0 915.5 -0.7 81
2020-01-24 17:00:00 8.6 5 Sur 12 Sur 0 915.6 -1.1 75
2020-01-24 16:00:00 8.6 8 Sur 15 Sur 0 915.8 -1.8 73
2020-01-24 15:00:00 8.2 8 Sur 17 Sur 0 916.2 -1.8 76
2020-01-24 14:00:00 8.5 6 Sur 17 Sur 0 916.7 -1.3 74
2020-01-24 13:00:00 7.7 9 Sur 15 Sur 0 917.6 -0.1 74
2020-01-24 12:00:00 7.2 4 Sudeste 9 Este 0 918 0.6 80
2020-01-24 11:00:00 2.9 3 Este 5 Este 0 918 0.6 97
2020-01-24 10:00:00 1.6 2 Nordeste 5 Noroeste 0 917.7 0.7 97
2020-01-24 09:00:00 1 3 Oeste 7 Noroeste 0 917.4 0.5 98
2020-01-24 08:00:00 0.7 3 Nordeste 6 Nordeste 0 917.4 0.5 99
2020-01-24 07:00:00 0.7 2 Norte 7 Norte 0 917 -0.1 99
2020-01-24 06:00:00 0.5 2 Norte 5 Sur 0 916.9 -0.3 98
2020-01-24 05:00:00 0.8 2 Nordeste 6 Sur 0 916.9 -0.4 99
2020-01-24 04:00:00 0.8 2 Sudeste 6 Este 0 917.1 -0.5 99
2020-01-24 03:00:00 0.8 4 Este 5 Este 0 917.2 -0.3 96
2020-01-24 02:00:00 1.7 0 Calma 5 Este 0 917.3 -0.1 97
2020-01-24 01:00:00 1.5 3 Este 5 Este 0 917.6 0.7 96
2020-01-24 00:00:00 2.6 2 Sudeste 4 Sudeste 0 917.5 0.5 95
2020-01-23 23:00:00 2.7 0 Calma 4 Oeste 0 917.4 0.8 94
2020-01-23 22:00:00 2.8 2 Este 3 Este 0 916.9 0.9 94
2020-01-23 21:00:00 3.2 0 Calma 3 Este 0 917 1.3 93
2020-01-23 20:00:00 3.2 2 Este 5 Este 0 916.6 1.3 92
2020-01-23 19:00:00 4 2 Sudeste 4 Sudoeste 0 916 0.7 90
2020-01-23 18:00:00 4.2 2 Sudoeste 6 Oeste 0 915.7 0.3 89
2020-01-23 17:00:00 4.2 2 Sudoeste 7 Sudeste 0 915.3 -0.4 88
2020-01-23 16:00:00 3.7 4 Sur 8 Sur 0 915.3 -0.9 89
2020-01-23 15:00:00 3.8 3 Sudeste 8 Sur 0 915.4 -1.2 90
2020-01-23 14:00:00 3.5 3 Sudeste 9 Sudeste 0 915.7 -0.9 92
2020-01-23 13:00:00 2.7 5 Sur 13 Sur 0 916.2 0 91
2020-01-23 12:00:00 2.7 2 Este 8 Sudoeste 0 916.6 0.9 90
2020-01-23 11:00:00 2.5 2 Sudoeste 6 Este 0 916.6 1.5 93
2020-01-23 10:00:00 2.1 3 Este 8 Este 0 916.2 1.3 96
2020-01-23 09:00:00 2 0 Calma 4 Sudoeste 0 915.7 1 97
2020-01-23 08:00:00 2 2 Oeste 4 Norte 0 915.1 0.6 97
2020-01-23 07:00:00 1.7 2 Nordeste 5 Sudoeste 0 914.9 0.3 98
2020-01-23 06:00:00 1.9 2 Nordeste 4 Este 0 914.7 -0.3 97
2020-01-23 05:00:00 1.8 3 Este 6 Sur 0 914.5 -0.8 96
2020-01-23 04:00:00 1.7 0 Calma 6 Sur 0 914.6 -1 96
2020-01-23 03:00:00 2 4 Sur 7 Sur 0 915 -0.6 96
2020-01-23 02:00:00 1.9 4 Oeste 6 Oeste 0 915.3 0.1 97
2020-01-23 01:00:00 1.8 4 Oeste 9 Oeste 0 915.6 1.1 96
2020-01-23 00:00:00 1.7 3 Sudoeste 7 Oeste 0 915.6 0.4 97
2020-01-22 23:00:00 1.5 6 Oeste 10 Oeste 0 915.2 0.7 96
2020-01-22 22:00:00 1.8 5 Oeste 10 Oeste 0.4 914.5 0.3 95
2020-01-22 21:00:00 2.3 3 Sudeste 9 Norte 0 915.2 1.6 94
2020-01-22 20:00:00 2.4 7 Noroeste 16 Noroeste 0 914.5 0.8 93
2020-01-22 19:00:00 2.5 6 Oeste 13 Noroeste 0 914.2 0.6 93
2020-01-22 18:00:00 3.1 4 Noroeste 16 Noroeste 0 913.6 -0.4 91
2020-01-22 17:00:00 3.4 9 Oeste 15 Oeste 0 913.7 -1 91
2020-01-22 16:00:00 5.4 9 Oeste 17 Oeste 0 913.6 -1.9 82
2020-01-22 15:00:00 7.4 6 Oeste 11 Oeste 0 914 -2.2 74
2020-01-22 14:00:00 5.4 6 Sudoeste 19 Oeste 0 914.7 -1.6 79
2020-01-22 13:00:00 5.8 10 Oeste 15 Oeste 0 915.5 -0.5 76
2020-01-22 12:00:00 5.2 6 Noroeste 14 Noroeste 0 916.2 0.6 81
2020-01-22 11:00:00 3.3 4 Oeste 12 Oeste 0 916.3 1 88
2020-01-22 10:00:00 1.3 4 Norte 11 Oeste 0 916 0.9 94
2020-01-22 09:00:00 1 3 Noroeste 10 Oeste 0 915.6 0.8 95
2020-01-22 08:00:00 1.8 8 Oeste 12 Oeste 0 915.3 0.3 94
2020-01-22 07:00:00 2 5 Noroeste 13 Oeste 0 915.1 0 94
2020-01-22 06:00:00 1.9 8 Oeste 13 Oeste 0 914.8 -0.4 95
2020-01-22 05:00:00 1.9 8 Oeste 11 Oeste 0.2 915 0 95
2020-01-22 04:00:00 1.5 8 Oeste 12 Noroeste 0 915.1 -0.1 97
2020-01-22 03:00:00 1.4 3 Noroeste 12 Oeste 0 915.2 0.3 96
2020-01-22 02:00:00 1.2 8 Oeste 14 Oeste 0.2 915 0.1 96
2020-01-22 01:00:00 1.3 9 Oeste 16 Oeste 0.2 915.2 0.6 96
2020-01-22 00:00:00 1.9 8 Noroeste 13 Noroeste 1 914.9 1.1 94
2020-01-21 23:00:00 2.9 5 Norte 24 Nordeste 0 914.9 1.5 90
2020-01-21 22:00:00 2.5 6 Noroeste 18 Oeste 0 914.6 1.2 93
2020-01-21 21:00:00 1.9 15 Oeste 21 Oeste 0 913.8 0.6 94
2020-01-21 20:00:00 2.2 12 Nordeste 26 Nordeste 0.6 913.4 0.7 95
2020-01-21 19:00:00 1.2 6 Oeste 10 Oeste 4.2 913.4 0.9 96
2020-01-21 18:00:00 0.9 5 Oeste 12 Oeste 2.4 913.2 0.8 97
2020-01-21 17:00:00 0.5 6 Oeste 15 Noroeste 4.4 912.7 0.2 96
2020-01-21 16:00:00 1.2 9 Noroeste 14 Norte 2.2 912.5 -1.2 94
2020-01-21 15:00:00 1.8 4 Este 24 Nordeste 1.2 912.4 -2.6 92
2020-01-21 14:00:00 0.9 11 Noroeste 28 Noroeste 0.8 912.5 -3.1 94
2020-01-21 13:00:00 1.5 10 Noroeste 25 Norte 0 913.7 -1.9 90
2020-01-21 12:00:00 0.8 10 Noroeste 23 Noroeste 1.2 915 -0.2 92
2020-01-21 11:00:00 0.2 9 Noroeste 20 Noroeste 1.4 915.6 0.4 92
2020-01-21 10:00:00 0 8 Noroeste 22 Norte 0.8 915.6 0.6 94
2020-01-21 09:00:00 0.2 11 Noroeste 24 Noroeste 0.2 915.2 -0.1 88
2020-01-21 08:00:00 0.4 10 Norte 26 Norte 0.2 915.2 -0.9 87
2020-01-21 07:00:00 0.1 10 Norte 27 Norte 0.6 915 -1.8 94
2020-01-21 06:00:00 0.7 14 Norte 42 Norte 0 915.3 -2.2 83
2020-01-21 05:00:00 1 17 Norte 37 Norte 0 916.1 -1.6 77
2020-01-21 04:00:00 0.3 11 Norte 30 Norte 0 916.8 -1.6 86
2020-01-21 03:00:00 0.8 16 Noroeste 38 Noroeste 0 917.5 -1.1 78
2020-01-21 02:00:00 0.6 12 Noroeste 29 Noroeste 0 917.7 -0.8 81
2020-01-21 01:00:00 1.1 13 Noroeste 26 Noroeste 0 918.4 0.1 78
2020-01-21 00:00:00 1 8 Noroeste 24 Norte 0 918.6 0 82
2020-01-20 23:00:00 1 10 Norte 31 Norte 0 918.5 0.2 84
2020-01-20 22:00:00 0.9 13 Norte 25 Noroeste 0 918.3 0.2 80
2020-01-20 21:00:00 0.6 12 Noroeste 27 Norte 0 918.6 0.7 81
2020-01-20 20:00:00 0.2 10 Noroeste 30 Norte 0 918.3 1 83
2020-01-20 19:00:00 0.4 13 Noroeste 27 Noroeste 0 918.1 0.4 80
2020-01-20 18:00:00 0.7 10 Noroeste 28 Noroeste 0 917.9 -0.1 80
2020-01-20 17:00:00 0.6 13 Noroeste 30 Noroeste 0 917.3 -0.9 80
2020-01-20 16:00:00 0.2 12 Norte 29 Norte 0 917.7 -1.1 81
2020-01-20 15:00:00 0 13 Norte 32 Noroeste 0 918 -1.3 80
2020-01-20 14:00:00 0.3 13 Noroeste 30 Noroeste 0 918.2 -1.2 77
2020-01-20 13:00:00 0 15 Noroeste 31 Noroeste 0 918.8 0 75
2020-01-20 12:00:00 -1 14 Noroeste 29 Norte 0 919.3 1 81
2020-01-20 11:00:00 -1.6 13 Noroeste 36 Norte 0 919.4 1.3 83
2020-01-20 10:00:00 -1.3 16 Noroeste 35 Noroeste 0 918.8 1.5 74
2020-01-20 09:00:00 -1.5 16 Noroeste 32 Norte 0 918.3 0.7 76
2020-01-20 08:00:00 -1.2 13 Norte 28 Norte 0 918.1 0.1 71
2020-01-20 07:00:00 -0.8 13 Norte 33 Norte 0 917.3 -0.7 63
2020-01-20 06:00:00 -1.6 13 Noroeste 27 Noroeste 0 917.6 -0.8 73
2020-01-20 05:00:00 -1.2 10 Norte 30 Norte 0 918 -0.6 68
2020-01-20 04:00:00 -1.1 12 Norte 25 Noroeste 0 918 -0.8 69
2020-01-20 03:00:00 -1 12 Norte 25 Norte 0 918.4 -0.4 68
2020-01-20 02:00:00 -0.8 11 Norte 36 Noroeste 0 918.6 -0.2 68
2020-01-20 01:00:00 -0.4 13 Norte 35 Nordeste 0 918.8 0.1 67
2020-01-20 00:00:00 -0.5 13 Norte 26 Norte 0 918.8 0.5 69
2020-01-19 23:00:00 -0.4 9 Norte 25 Norte 0 918.8 1 70
2020-01-19 22:00:00 0 9 Norte 23 Noroeste 0 918.7 1.5 69
2020-01-19 21:00:00 0.4 9 Norte 25 Norte 0 918.3 1.9 68
2020-01-19 20:00:00 1.3 9 Norte 32 Nordeste 0 917.8 1.9 68
2020-01-19 19:00:00 1.9 12 Nordeste 29 Nordeste 0 917.2 2 69
2020-01-19 18:00:00 2.4 12 Norte 32 Norte 0 916.4 1.3 73
2020-01-19 17:00:00 2.8 10 Norte 28 Norte 0 915.9 1.2 75
2020-01-19 16:00:00 3 9 Norte 36 Noroeste 0 915.2 0.3 79
2020-01-19 15:00:00 3.3 12 Norte 29 Nordeste 0 915.1 0.4 83
2020-01-19 14:00:00 3.4 10 Norte 33 Nordeste 0 914.7 0.4 88
2020-01-19 13:00:00 2.8 12 Norte 35 Nordeste 0.4 914.9 1.2 88
2020-01-19 12:00:00 4 12 Norte 26 Norte 0 914.7 1.3 83
2020-01-19 11:00:00 4 9 Noroeste 20 Noroeste 0 914.3 1.5 87
2020-01-19 10:00:00 3.5 8 Norte 27 Norte 0 913.7 0.7 88
2020-01-19 09:00:00 3.2 6 Norte 21 Norte 0 913.4 0.3 86
2020-01-19 08:00:00 3 5 Noroeste 15 Noroeste 0 912.8 -1 88
2020-01-19 07:00:00 2.8 6 Noroeste 12 Noroeste 0 913 -1.2 88
2020-01-19 06:00:00 3.4 7 Noroeste 15 Noroeste 0 913.1 -1.5 84
2020-01-19 05:00:00 3 5 Noroeste 15 Noroeste 0 913.8 -0.9 86
2020-01-19 04:00:00 3.5 6 Noroeste 18 Norte 0 914.2 -0.9 84
2020-01-19 03:00:00 4.3 6 Noroeste 10 Norte 0 914.6 -1 89
2020-01-19 02:00:00 4.3 2 Noroeste 13 Nordeste 0 914.7 -0.6 88
2020-01-19 01:00:00 4.8 6 Nordeste 27 Norte 0.4 915.1 -0.3 89
2020-01-19 00:00:00 6.5 12 Norte 33 Norte 0.2 915.6 -0.3 82
2020-01-18 23:00:00 8.1 6 Sudoeste 18 Sur 0.6 915.3 -0.8 89
2020-01-18 22:00:00 8.6 10 Sur 24 Sur 0 915.4 -1.3 80
2020-01-18 21:00:00 8.6 9 Sur 19 Sur 0 915.9 -1.7 79
2020-01-18 20:00:00 8.4 9 Sur 21 Sur 0 916.1 -1.8 80
2020-01-18 19:00:00 8.2 13 Sur 28 Sur 0 916.7 -2.1 80
2020-01-18 18:00:00 8.3 13 Sur 26 Sudoeste 0 917.6 -2 76
2020-01-18 17:00:00 10.6 18 Sudoeste 30 Sudoeste 0 917.9 -3 63
2020-01-18 16:00:00 9.6 16 Sur 30 Sur 0 918.8 -3.4 65
2020-01-18 15:00:00 9.8 17 Sur 31 Sudeste 0 919.6 -4.1 63
2020-01-18 14:00:00 9.8 14 Sur 35 Sur 0 920.9 -3.6 63
2020-01-18 13:00:00 9.7 17 Sur 35 Sur 0 922.2 -2.7 62
2020-01-18 12:00:00 7.2 12 Sur 19 Sur 0 923.7 -1.1 68
2020-01-18 11:00:00 2.6 4 Sudeste 10 Sudeste 0 924.5 -0.5 82
2020-01-18 10:00:00 1.3 3 Sur 8 Oeste 0 924.9 -0.6 84
2020-01-18 09:00:00 0.6 3 Oeste 13 Sudoeste 0 924.8 -0.4 86
2020-01-18 08:00:00 -0.3 5 Noroeste 12 Sur 0 925 0 88
2020-01-18 07:00:00 -0.6 3 Nordeste 9 Sur 0 925.5 -0.2 88
2020-01-18 06:00:00 -1 4 Oeste 12 Oeste 0 925.2 -0.9 89
2020-01-18 05:00:00 -1.2 4 Oeste 5 Sudoeste 0 925 -1.7 88
2020-01-18 04:00:00 -1.1 3 Nordeste 8 Oeste 0 925.7 -1.1 87
2020-01-18 03:00:00 -0.3 5 Oeste 7 Oeste 0 926.1 -0.9 85
2020-01-18 02:00:00 -0.6 3 Nordeste 5 Nordeste 0 926.7 -0.1 85
2020-01-18 01:00:00 -0.5 3 Nordeste 7 Nordeste 0 926.8 0.4 84
2020-01-18 00:00:00 0.1 2 Sudoeste 7 Sur 0 927 0.6 81
2020-01-17 23:00:00 0.8 5 Oeste 11 Oeste 0 926.8 0.8 78
2020-01-17 22:00:00 2.1 4 Noroeste 12 Noroeste 0 926.4 1 70
2020-01-17 21:00:00 4.1 6 Noroeste 17 Noroeste 0 926.4 1.6 66
2020-01-17 20:00:00 4.6 5 Noroeste 8 Noroeste 0 926 1.7 65
2020-01-17 19:00:00 6.1 4 Noroeste 12 Norte 0 925.4 1.4 63
2020-01-17 18:00:00 8.8 7 Noroeste 26 Noroeste 0 924.8 1.1 54
2020-01-17 17:00:00 10.7 10 Noroeste 30 Noroeste 0 924.3 0.2 49
2020-01-17 16:00:00 11.4 12 Noroeste 28 Oeste 0 924 -0.3 43
2020-01-17 15:00:00 11.8 16 Oeste 31 Oeste 0 923.7 -1.2 47
2020-01-17 14:00:00 11.2 13 Oeste 36 Oeste 0 924.1 -0.5 50
2020-01-17 13:00:00 11.8 16 Oeste 38 Oeste 0 924.3 0 50
2020-01-17 12:00:00 9.7 13 Oeste 25 Noroeste 0 924.9 1 56
2020-01-17 11:00:00 6.5 4 Norte 10 Nordeste 0 924.6 1.2 67
2020-01-17 10:00:00 0.9 3 Nordeste 6 Nordeste 0 924.3 1.7 88
2020-01-17 09:00:00 -1.5 2 Norte 8 Sudoeste 0 923.9 1.8 91
2020-01-17 08:00:00 -1.7 3 Oeste 6 Sudoeste 0 923.4 1.5 89
2020-01-17 07:00:00 -1.4 3 Oeste 10 Norte 0 922.6 0.3 90
2020-01-17 06:00:00 -0.8 0 Calma 8 Oeste 0 922.1 -0.3 89
2020-01-17 05:00:00 0.5 6 Oeste 8 Nordeste 0 921.9 -0.3 89
2020-01-17 04:00:00 0.9 5 Noroeste 12 Norte 0 922.3 -0.4 88
2020-01-17 03:00:00 1.7 3 Norte 8 Este 0 922.4 -0.2 85
2020-01-17 02:00:00 2 4 Nordeste 8 Este 0 922.2 -0.3 87
2020-01-17 01:00:00 2.1 4 Nordeste 7 Nordeste 0 922.7 0.2 87
2020-01-17 00:00:00 1.6 3 Nordeste 6 Nordeste 0 922.6 0.2 87
2020-01-16 23:00:00 2.5 4 Este 8 Este 0 922.5 0.5 86
2020-01-16 22:00:00 3.6 4 Nordeste 14 Sur 0 922.5 1.1 82
2020-01-16 21:00:00 5.2 5 Este 7 Este 0 922.4 1.4 74
2020-01-16 20:00:00 6.9 5 Sur 17 Sur 0 922 1.2 69
2020-01-16 19:00:00 10.2 12 Sudoeste 22 Oeste 0 921.4 0.5 61
2020-01-16 18:00:00 10.9 7 Sur 13 Sur 0 921 -0.2 54
2020-01-16 17:00:00 13.6 10 Sudoeste 19 Sudoeste 0 920.8 -0.7 46
2020-01-16 16:00:00 13.4 9 Sur 26 Sudeste 0 920.9 -1.5 50
2020-01-16 15:00:00 14.6 15 Sur 33 Sur 0 921.2 -2.4 49
2020-01-16 14:00:00 14.6 17 Sur 25 Sur 0 921.5 -2.8 47
2020-01-16 13:00:00 11.9 5 Sudeste 11 Sur 0 922.4 -1.8 58
2020-01-16 12:00:00 8.1 3 Sudeste 7 Este 0 923.6 -0.6 68
2020-01-16 11:00:00 4.5 2 Este 4 Sur 0 924.3 0.3 77
2020-01-16 10:00:00 -1.3 0 Calma 8 Oeste 0 924.2 0.7 95
2020-01-16 09:00:00 -3.2 3 Oeste 5 Oeste 0 924.2 0.9 92
2020-01-16 08:00:00 -3.3 0 Calma 4 Oeste 0 924 0.6 92
2020-01-16 07:00:00 -2.8 2 Noroeste 5 Oeste 0 923.5 0 92
2020-01-16 06:00:00 -1.8 3 Oeste 5 Norte 0 923.3 -0.2 93
2020-01-16 05:00:00 -1.9 3 Norte 7 Oeste 0 923.4 0 94
2020-01-16 04:00:00 -1.6 5 Oeste 9 Oeste 0 923.5 -0.1 95
2020-01-16 03:00:00 -1.5 3 Oeste 5 Nordeste 0 923.5 0 92
2020-01-16 02:00:00 -0.6 2 Este 6 Nordeste 0 923.4 0.1 91
2020-01-16 01:00:00 -0.2 5 Oeste 11 Oeste 0 923.6 0.8 91
2020-01-16 00:00:00 0.5 2 Nordeste 12 Nordeste 0 923.5 0.5 87
2020-01-15 23:00:00 0.9 6 Norte 11 Norte 0 923.3 0.7 89
2020-01-15 22:00:00 2.7 0 Calma 6 Norte 0 922.8 1.1 84
2020-01-15 21:00:00 3.8 3 Norte 10 Norte 0 923 2.2 79
2020-01-15 20:00:00 5.9 2 Este 9 Norte 0 922.6 2.3 74
2020-01-15 19:00:00 7.9 4 Noroeste 16 Oeste 0 921.7 1.8 66
2020-01-15 18:00:00 10.2 8 Oeste 12 Oeste 0 920.8 1.1 57
2020-01-15 17:00:00 12.9 9 Oeste 14 Sudoeste 0 920.3 0.1 49
2020-01-15 16:00:00 13.4 3 Este 10 Norte 0 919.9 -0.7 38
2020-01-15 15:00:00 12.4 4 Nordeste 8 Norte 0 919.7 -1.3 41
2020-01-15 14:00:00 10.7 3 Nordeste 8 Sudoeste 0 920.2 -0.7 46
2020-01-15 13:00:00 7.6 3 Este 9 Este 0 920.6 0.3 55
2020-01-15 12:00:00 4.3 4 Sudeste 6 Sudeste 0 921 1.1 62
2020-01-15 11:00:00 0.8 5 Nordeste 13 Nordeste 0 920.9 1.4 71
2020-01-15 10:00:00 -2.9 3 Sudoeste 7 Oeste 0 920.3 1.2 85
2020-01-15 09:00:00 -5.2 3 Noroeste 4 Oeste 0 919.9 0.9 86
2020-01-15 08:00:00 -4.8 0 Calma 5 Oeste 0 919.5 0.5 83
2020-01-15 07:00:00 -4.5 3 Nordeste 7 Oeste 0 919.1 0 83
2020-01-15 06:00:00 -5.3 3 Nordeste 9 Oeste 0 919 0 85
2020-01-15 05:00:00 -4.8 3 Oeste 6 Norte 0 919 0.4 82
2020-01-15 04:00:00 -4.5 3 Oeste 6 Noroeste 0 919.1 0.5 82
2020-01-15 03:00:00 -4.9 2 Norte 5 Norte 0 919 0.3 79
2020-01-15 02:00:00 -4.3 0 Calma 8 Norte 0 918.6 0.3 81
2020-01-15 01:00:00 -3.6 4 Nordeste 6 Nordeste 0 918.6 0.7 81
2020-01-15 00:00:00 -2.5 3 Noroeste 8 Norte 0 918.7 1.3 74
2020-01-14 23:00:00 -1.5 3 Norte 6 Norte 0 918.3 1.4 69
2020-01-14 22:00:00 -0.4 3 Noroeste 5 Norte 0 917.9 1.6 60
2020-01-14 21:00:00 0.9 2 Noroeste 5 Noroeste 0 917.4 1.9 54
2020-01-14 20:00:00 3.5 4 Norte 11 Oeste 0 916.9 1.6 46
2020-01-14 19:00:00 8.1 8 Oeste 22 Sudoeste 0 916.3 1.2 37
2020-01-14 18:00:00 11.7 12 Sur 26 Sudoeste 0 915.5 0.2 31
2020-01-14 17:00:00 14.3 14 Sur 28 Sur 0 915.3 -0.7 23
2020-01-14 16:00:00 15.4 12 Sur 22 Sur 0 915.1 -1.9 18
2020-01-14 15:00:00 14.5 10 Sur 22 Sur 0 915.3 -2.7 17
2020-01-14 14:00:00 11.5 5 Sudeste 10 Este 0 916 -2.6 25
2020-01-14 13:00:00 8.2 4 Sudeste 9 Sur 0 917 -1.5 31
2020-01-14 12:00:00 4.5 3 Nordeste 7 Sudoeste 0 918 -0.4 41
2020-01-14 11:00:00 0.1 2 Sudoeste 5 Sudoeste 0 918.6 0.1 60
2020-01-14 10:00:00 -5.5 2 Nordeste 4 Este 0 918.5 0.3 78
2020-01-14 09:00:00 -7.4 0 Calma 6 Noroeste 0 918.4 0.5 82
2020-01-14 08:00:00 -7.9 5 Oeste 7 Norte 0 918.5 0.5 80
2020-01-14 07:00:00 -7.7 2 Noroeste 6 Oeste 0 918.2 0.1 81
2020-01-14 06:00:00 -7.6 3 Noroeste 5 Oeste 0 917.9 -0.4 79
2020-01-14 05:00:00 -6.7 3 Noroeste 6 Noroeste 0 918 -0.3 77
2020-01-14 04:00:00 -6.5 3 Nordeste 6 Oeste 0 918.1 -0.4 77
2020-01-14 03:00:00 -5.4 0 Calma 8 Noroeste 0 918.3 -0.1 74
2020-01-14 02:00:00 -5 5 Norte 8 Norte 0 918.3 0.5 73
2020-01-14 01:00:00 -3.8 3 Noroeste 7 Oeste 0 918.5 0.8 72
2020-01-14 00:00:00 -3.7 3 Nordeste 8 Norte 0 918.4 0.4 73
2020-01-13 23:00:00 -2.3 3 Oeste 9 Oeste 0 917.8 -0.5 68
2020-01-13 22:00:00 -0.7 4 Noroeste 8 Norte 0 917.7 -0.1 61
2020-01-13 21:00:00 0.7 2 Nordeste 6 Nordeste 0 918 0.5 58
2020-01-13 20:00:00 2.6 4 Norte 9 Norte 0 918.3 0.8 50
2020-01-13 19:00:00 5.7 0 Calma 5 Oeste 0 917.8 0.3 40
2020-01-13 18:00:00 8.9 3 Oeste 6 Nordeste 0 917.5 -0.1 31
2020-01-13 17:00:00 11.8 3 Nordeste 19 Sur 0 917.5 -0.8 25
2020-01-13 16:00:00 12.4 8 Sudeste 14 Sudeste 0 917.5 -2.3 24
2020-01-13 15:00:00 10.5 4 Sudeste 8 Sudeste 0 917.6 -3.4 27
2020-01-13 14:00:00 8.5 4 Sudeste 9 Este 0 918.3 -3.5 31
2020-01-13 13:00:00 6 3 Sur 5 Sudeste 0 919.8 -1.8 35
2020-01-13 12:00:00 2.8 3 Sudeste 5 Sudeste 0 921 -0.7 43
2020-01-13 11:00:00 -1.5 4 Norte 8 Norte 0 921.8 -0.2 60
2020-01-13 10:00:00 -5.8 2 Sudoeste 5 Oeste 0 921.6 -0.5 78
2020-01-13 09:00:00 -8.3 2 Oeste 5 Oeste 0 921.7 -0.5 82
2020-01-13 08:00:00 -8.5 0 Calma 4 Oeste 0 922 -0.3 81
2020-01-13 07:00:00 -7.8 0 Calma 8 Oeste 0 922.1 -1 78
2020-01-13 06:00:00 -7.7 0 Calma 5 Norte 0 922.2 -1.2 79
2020-01-13 05:00:00 -7.3 3 Oeste 6 Oeste 0 922.3 -1.3 75
2020-01-13 04:00:00 -6.8 2 Noroeste 8 Noroeste 0 923.1 -1.2 74
2020-01-13 03:00:00 -6 3 Noroeste 9 Oeste 0 923.4 -1.1 72
2020-01-13 02:00:00 -5.6 3 Oeste 6 Noroeste 0 923.6 -1.2 71
2020-01-13 01:00:00 -5.4 3 Norte 6 Oeste 0 924.3 -0.5 69
2020-01-13 00:00:00 -4.4 0 Calma 6 Oeste 0 924.5 -0.1 66
2020-01-12 23:00:00 -3.6 3 Norte 7 Norte 0 924.8 0.3 61
2020-01-12 22:00:00 -2.3 3 Norte 5 Oeste 0 924.8 0.7 55
2020-01-12 21:00:00 -0.6 3 Noroeste 8 Norte 0 924.6 1.2 47
2020-01-12 20:00:00 1.5 4 Norte 7 Nordeste 0 924.5 1.5 41
2020-01-12 19:00:00 4.8 3 Norte 13 Oeste 0 924.1 1.1 31
2020-01-12 18:00:00 8.4 4 Oeste 14 Noroeste 0 923.4 0.2 22
2020-01-12 17:00:00 11.1 8 Noroeste 15 Oeste 0 923 -0.8 21
2020-01-12 16:00:00 11.4 9 Noroeste 17 Noroeste 0 923 -1.9 23
2020-01-12 15:00:00 10.5 5 Noroeste 12 Noroeste 0 923.2 -2.7 30
2020-01-12 14:00:00 8.5 5 Norte 10 Norte 0 923.8 -2.6 33
2020-01-12 13:00:00 7.2 3 Sudeste 8 Sudoeste 0 924.9 -1.2 40
2020-01-12 12:00:00 3.4 4 Sudoeste 8 Oeste 0 925.9 0.2 56
2020-01-12 11:00:00 -0.1 3 Este 5 Norte 0 926.4 0.7 67
2020-01-12 10:00:00 -5.6 0 Calma 4 Oeste 0 926.1 0.7 88
2020-01-12 09:00:00 -7.8 2 Oeste 5 Oeste 0 925.7 0.6 86
2020-01-12 08:00:00 -7.2 2 Oeste 4 Oeste 0 925.7 0.7 87
2020-01-12 07:00:00 -6.7 3 Noroeste 8 Noroeste 0 925.4 0 86
2020-01-12 06:00:00 -6.4 4 Norte 6 Noroeste 0 925.1 -0.5 87
2020-01-12 05:00:00 -6.1 2 Noroeste 4 Noroeste 0 925 -0.6 86
2020-01-12 04:00:00 -5.7 4 Noroeste 6 Noroeste 0 925.4 -0.3 86
2020-01-12 03:00:00 -5.2 0 Calma 6 Noroeste 0 925.6 -0.3 84
2020-01-12 02:00:00 -4.1 3 Norte 8 Norte 0 925.6 -0.2 83
2020-01-12 01:00:00 -4.1 3 Noroeste 5 Noroeste 0 925.7 0.1 85
2020-01-12 00:00:00 -3.5 3 Oeste 8 Nordeste 0 925.9 0.5 82
2020-01-11 23:00:00 -2.4 3 Norte 5 Norte 0 925.8 0.9 79
2020-01-11 22:00:00 -1.5 3 Noroeste 6 Noroeste 0 925.6 1.2 77
2020-01-11 21:00:00 -0.5 4 Noroeste 10 Norte 0 925.4 1.5 74
2020-01-11 20:00:00 1.5 3 Norte 9 Oeste 0 924.9 1.1 65
2020-01-11 19:00:00 4.9 4 Noroeste 9 Noroeste 0 924.4 0.6 51
2020-01-11 18:00:00 7.7 6 Oeste 9 Oeste 0 923.9 -0.1 45
2020-01-11 17:00:00 11.1 5 Sudoeste 10 Noroeste 0 923.8 -0.9 36
2020-01-11 16:00:00 11 5 Noroeste 13 Noroeste 0 923.8 -2.1 37
2020-01-11 15:00:00 10.3 3 Oeste 11 Norte 0 924 -2.8 41
2020-01-11 14:00:00 9.2 3 Este 14 Sur 0 924.7 -2.5 51
2020-01-11 13:00:00 7.2 6 Sur 10 Sur 0 925.9 -0.8 61
2020-01-11 12:00:00 5.3 4 Sur 9 Oeste 0 926.8 0.6 67
2020-01-11 11:00:00 3.1 3 Este 7 Nordeste 0 927.2 1.4 74
2020-01-11 10:00:00 -0.8 0 Calma 6 Noroeste 0 926.7 1.1 90
2020-01-11 09:00:00 -2.4 3 Norte 9 Oeste 0 926.2 1 90
2020-01-11 08:00:00 -1.5 3 Oeste 7 Noroeste 0 925.8 0.7 90
2020-01-11 07:00:00 -0.7 4 Norte 10 Norte 0 925.6 0.1 89
2020-01-11 06:00:00 1 7 Norte 12 Norte 0 925.2 -0.1 82
2020-01-11 05:00:00 2.9 4 Norte 17 Nordeste 0 925.1 0.1 76
2020-01-11 04:00:00 3.2 7 Norte 17 Nordeste 0 925.5 0.7 76
2020-01-11 03:00:00 3.6 8 Noroeste 16 Noroeste 0 925.3 0.9 78
2020-01-11 02:00:00 3.8 8 Noroeste 18 Norte 0 925 0.2 76
2020-01-11 01:00:00 2.7 7 Noroeste 17 Noroeste 0 924.8 0.1 79
2020-01-11 00:00:00 3 5 Norte 14 Norte 0 924.4 0 76
2020-01-10 23:00:00 4.9 8 Noroeste 24 Norte 0 924.8 0.9 69
2020-01-10 22:00:00 5.2 8 Noroeste 21 Noroeste 0 924.7 1.5 70
2020-01-10 21:00:00 5.5 7 Norte 22 Noroeste 0 924.4 1.7 69
2020-01-10 20:00:00 5.8 8 Norte 21 Norte 0 923.9 1.6 68
2020-01-10 19:00:00 5.8 8 Norte 28 Norte 0 923.2 1.3 67
2020-01-10 18:00:00 6.1 9 Norte 29 Norte 0 922.7 1.1 64
2020-01-10 17:00:00 6.5 10 Norte 31 Norte 0 922.3 0.9 61
2020-01-10 16:00:00 6.8 15 Norte 35 Norte 0 921.9 -0.2 61
2020-01-10 15:00:00 7.2 15 Norte 35 Norte 0 921.6 -0.9 58
2020-01-10 14:00:00 7.3 15 Norte 35 Noroeste 0 921.4 -1 58
2020-01-10 13:00:00 6.8 16 Norte 41 Norte 0 922.1 0.2 57
2020-01-10 12:00:00 6.1 14 Norte 39 Norte 0 922.5 1 60
2020-01-10 11:00:00 6.1 13 Nordeste 32 Norte 0 922.4 1.3 63
2020-01-10 10:00:00 4.3 6 Norte 19 Nordeste 0 921.9 1.3 73
2020-01-10 09:00:00 4 5 Norte 11 Este 0 921.5 1.3 75
2020-01-10 08:00:00 4.2 6 Nordeste 20 Norte 0 921.1 1.3 77
2020-01-10 07:00:00 4.7 7 Norte 26 Nordeste 0 920.6 0.5 80
2020-01-10 06:00:00 4.2 9 Nordeste 23 Nordeste 0 920.2 0.3 90
2020-01-10 05:00:00 -0.3 6 Oeste 8 Nordeste 0 919.8 -0.2 90
2020-01-10 04:00:00 -0.5 2 Norte 7 Nordeste 0 920.1 0 87
2020-01-10 03:00:00 0.3 3 Noroeste 8 Sudoeste 0 919.9 -0.2 83
2020-01-10 02:00:00 1.5 2 Noroeste 4 Nordeste 0 920 -0.1 79
2020-01-10 01:00:00 1.8 0 Calma 5 Oeste 0 920.1 -0.5 77
2020-01-10 00:00:00 2.6 3 Norte 6 Norte 0 920.1 0.3 73
2020-01-09 23:00:00 3.7 3 Nordeste 9 Oeste 0 920.1 0.7 68
2020-01-09 22:00:00 3.8 0 Calma 12 Noroeste 0 920.6 0.6 66
2020-01-09 21:00:00 4.6 4 Oeste 9 Norte 0 919.8 0.4 61
2020-01-09 20:00:00 6.9 3 Este 6 Oeste 0 919.4 0.5 54
2020-01-09 19:00:00 9.7 3 Este 10 Oeste 0 920 0.8 43
2020-01-09 18:00:00 12.1 6 Sudoeste 21 Sudeste 0 919.4 -0.6 36
2020-01-09 17:00:00 14.6 10 Sur 22 Sur 0 918.9 -1.9 31
2020-01-09 16:00:00 15.1 10 Sur 19 Sur 0 919.2 -2.5 30
2020-01-09 15:00:00 13.5 8 Sudeste 20 Sudeste 0 920 -2.9 29
2020-01-09 14:00:00 9.8 5 Sudeste 12 Este 0 920.8 -2.9 60
2020-01-09 13:00:00 5.7 5 Sur 11 Sur 0 921.7 -1.7 79
2020-01-09 12:00:00 1.9 4 Sur 7 Sur 0 922.9 -0.2 92
2020-01-09 11:00:00 0.2 2 Sudoeste 6 Nordeste 0 923.7 0.6 96
2020-01-09 10:00:00 -0.3 2 Nordeste 8 Nordeste 0 923.4 0 98
2020-01-09 09:00:00 -0.7 4 Nordeste 8 Nordeste 0 923.1 -0.4 97
2020-01-09 08:00:00 0 5 Este 8 Este 0 923.1 -0.9 96
2020-01-09 07:00:00 0.8 5 Este 9 Nordeste 0 923.4 -0.9 97
2020-01-09 06:00:00 1.5 5 Este 13 Este 0 923.5 -0.8 97
2020-01-09 05:00:00 1.8 7 Nordeste 13 Nordeste 0 924 -0.5 97
2020-01-09 04:00:00 2.5 4 Nordeste 9 Norte 0 924.3 -0.5 97
2020-01-09 03:00:00 2.5 4 Nordeste 9 Nordeste 0 924.3 -0.8 97
2020-01-09 02:00:00 2.4 2 Norte 5 Norte 0 924.5 -0.6 97
2020-01-09 01:00:00 1.5 2 Oeste 5 Sudoeste 0 924.8 -0.3 93
2020-01-09 00:00:00 0.9 3 Nordeste 5 Nordeste 0 925.1 0 93
2020-01-08 23:00:00 1.8 0 Calma 3 Oeste 0 925.1 0 91
2020-01-08 22:00:00 3.8 0 Calma 5 Sudeste 0 925.1 0.2 87
2020-01-08 21:00:00 5.5 2 Sudeste 6 Sudeste 0 925.1 0.8 86
2020-01-08 20:00:00 6.7 3 Sudeste 9 Sur 0 925.1 1.3 82
2020-01-08 19:00:00 8.5 5 Sur 14 Sur 0 924.9 1.3 74
2020-01-08 18:00:00 10.4 6 Sudeste 16 Sudeste 0 924.3 0.5 67
2020-01-08 17:00:00 14.2 6 Sudeste 14 Sur 0 923.8 -0.2 51
2020-01-08 16:00:00 15.1 6 Sur 13 Sur 0 923.6 -1.2 48
2020-01-08 15:00:00 14.6 5 Sudoeste 12 Sudoeste 0 923.8 -2.1 47
2020-01-08 14:00:00 13.9 4 Sudeste 9 Sudoeste 0 924 -2.1 49
2020-01-08 13:00:00 12 4 Sudoeste 7 Sudoeste 0 924.8 -1.3 51
2020-01-08 12:00:00 8.8 4 Sudeste 9 Este 0 925.9 0.4 48
2020-01-08 11:00:00 4.7 4 Sur 8 Oeste 0 926.1 0.9 60
2020-01-08 10:00:00 -0.6 3 Sur 8 Norte 0 926.1 1.5 81
2020-01-08 09:00:00 -2.6 3 Oeste 6 Norte 0 925.5 0.8 83
2020-01-08 08:00:00 -2.9 3 Oeste 6 Noroeste 0 925.2 0.2 81
2020-01-08 07:00:00 -2.9 0 Calma 8 Oeste 0 924.6 -0.7 82
2020-01-08 06:00:00 -2.7 2 Noroeste 4 Oeste 0 924.7 -0.4 81
2020-01-08 05:00:00 -2.5 3 Noroeste 6 Norte 0 925 -0.2 80
2020-01-08 04:00:00 -2.4 2 Noroeste 8 Norte 0 925.3 -0.3 79
2020-01-08 03:00:00 -1.8 3 Noroeste 6 Noroeste 0 925.1 -0.8 76
2020-01-08 02:00:00 -2.1 3 Noroeste 6 Noroeste 0 925.2 -0.6 78
2020-01-08 01:00:00 -1.7 2 Noroeste 5 Oeste 0 925.6 0 75
2020-01-08 00:00:00 -0.9 3 Norte 7 Noroeste 0 925.9 0.5 73
2020-01-07 23:00:00 -0.3 4 Norte 7 Norte 0 925.8 0.4 73
2020-01-07 22:00:00 1 3 Noroeste 7 Norte 0 925.6 0.8 69
2020-01-07 21:00:00 2.4 6 Norte 11 Norte 0 925.4 1 65
2020-01-07 20:00:00 4.1 2 Noroeste 8 Nordeste 0 925.4 1.4 59
2020-01-07 19:00:00 7.6 5 Noroeste 8 Oeste 0 924.8 0.7 47
2020-01-07 18:00:00 11.3 3 Oeste 6 Sudoeste 0 924.4 -0.1 36
2020-01-07 17:00:00 14.7 5 Oeste 8 Oeste 0 924 -1.2 28
2020-01-07 16:00:00 15.5 3 Sudoeste 6 Nordeste 0 924.1 -2.1 26
2020-01-07 15:00:00 14 3 Norte 9 Noroeste 0 924.5 -2.7 28
2020-01-07 14:00:00 12.2 3 Nordeste 8 Nordeste 0 925.2 -2.5 31
2020-01-07 13:00:00 9.2 4 Nordeste 9 Sur 0 926.2 -1.3 43
2020-01-07 12:00:00 6.2 3 Oeste 7 Sudoeste 0 927.2 0.1 52
2020-01-07 11:00:00 1.5 4 Sudoeste 7 Sudoeste 0 927.7 1.2 71
2020-01-07 10:00:00 -3 0 Calma 5 Norte 0 927.5 1.1 87
2020-01-07 09:00:00 -4.9 3 Noroeste 6 Oeste 0 927.1 0.8 89
2020-01-07 08:00:00 -5 4 Oeste 5 Oeste 0 926.5 0.2 86
2020-01-07 07:00:00 -4.4 2 Norte 6 Oeste 0 926.4 -0.2 87
2020-01-07 06:00:00 -4 4 Noroeste 7 Oeste 0 926.3 -0.3 86
2020-01-07 05:00:00 -4.1 3 Noroeste 5 Noroeste 0 926.3 0.1 85
2020-01-07 04:00:00 -3.1 3 Norte 8 Noroeste 0 926.6 0.4 84
2020-01-07 03:00:00 -2.4 5 Norte 8 Norte 0 926.6 0.5 83
2020-01-07 02:00:00 -2.7 0 Calma 4 Noroeste 0 926.2 0.3 83
2020-01-07 01:00:00 -1.9 3 Norte 6 Oeste 0 926.2 0.6 80
2020-01-07 00:00:00 -0.8 0 Calma 5 Norte 0 926.1 1.3 76
2020-01-06 23:00:00 0.3 3 Norte 7 Norte 0 925.9 1.7 71
2020-01-06 22:00:00 1.2 2 Nordeste 13 Noroeste 0 925.6 2 68
2020-01-06 21:00:00 2.1 5 Norte 8 Norte 0 924.8 1.8 67
2020-01-06 20:00:00 4.1 2 Norte 4 Oeste 0 924.2 1.5 58
2020-01-06 19:00:00 7.2 2 Norte 9 Norte 0 923.6 1.1 46
2020-01-06 18:00:00 11.6 4 Noroeste 10 Noroeste 0 923 0.9 34
2020-01-06 17:00:00 15.7 5 Oeste 11 Oeste 0 922.7 -0.1 26
2020-01-06 16:00:00 16.2 5 Noroeste 8 Noroeste 0 922.5 -1.2 19
2020-01-06 15:00:00 14.9 3 Este 6 Sur 0 922.1 -2.5 27
2020-01-06 14:00:00 12.5 3 Sur 8 Sudeste 0 922.8 -2.3 29
2020-01-06 13:00:00 10.1 3 Sur 6 Oeste 0 923.7 -1.6 46
2020-01-06 12:00:00 5.9 4 Sudoeste 7 Oeste 0 924.6 -0.2 59
2020-01-06 11:00:00 2 2 Sur 4 Sudoeste 0 925.1 0.6 74
2020-01-06 10:00:00 -3.1 0 Calma 4 Oeste 0 925.3 1.2 92